createdAt,value
2022-10-03T00:04:06.849Z,3.55
2022-10-03T00:10:10.889Z,3.72
2022-10-03T00:15:49.948Z,4.00
2022-10-03T00:21:21.860Z,4.25
2022-10-03T00:26:52.463Z,4.72
2022-10-03T00:32:35.832Z,4.90
2022-10-03T00:38:05.519Z,4.93
2022-10-03T00:43:51.845Z,6.25
2022-10-03T00:49:34.539Z,6.45
2022-10-03T00:55:16.541Z,6.45
2022-10-03T01:00:41.527Z,6.78
2022-10-03T01:06:32.668Z,7.00
2022-10-03T01:12:14.023Z,6.55
2022-10-03T01:17:48.408Z,6.60
2022-10-03T01:23:28.947Z,7.55
2022-10-03T01:29:18.960Z,7.70
2022-10-03T01:35:00.392Z,7.55
2022-10-03T01:40:37.741Z,7.80
2022-10-03T01:46:28.027Z,7.72
2022-10-03T01:52:18.647Z,7.13
2022-10-03T01:57:54.596Z,8.93
2022-10-03T02:03:45.906Z,8.50
2022-10-03T02:09:48.769Z,9.23
2022-10-03T02:15:17.201Z,10.18
2022-10-03T02:20:58.642Z,9.80
2022-10-03T02:26:26.780Z,10.25
2022-10-03T02:32:19.145Z,11.68
2022-10-03T02:38:02.515Z,12.30
2022-10-03T02:43:54.069Z,11.90
2022-10-03T02:49:41.703Z,10.98
2022-10-03T02:55:27.861Z,11.40
2022-10-03T03:01:20.130Z,11.63
2022-10-03T03:07:07.412Z,11.15
2022-10-03T03:12:42.779Z,10.65
2022-10-03T03:18:18.273Z,10.85
2022-10-03T03:24:06.009Z,10.60
2022-10-03T03:29:46.549Z,9.70
2022-10-03T03:35:29.070Z,9.32
2022-10-03T03:41:26.561Z,9.57
2022-10-03T03:47:01.384Z,10.27
2022-10-03T03:52:58.269Z,9.75
2022-10-03T03:58:45.131Z,9.50
2022-10-03T04:04:22.121Z,8.40
2022-10-03T04:10:03.099Z,8.68
2022-10-03T04:15:43.338Z,8.70
2022-10-03T04:21:20.818Z,8.63
2022-10-03T04:27:01.618Z,9.02
2022-10-03T04:32:46.581Z,8.85
2022-10-03T04:38:23.261Z,8.77
2022-10-03T04:43:58.612Z,8.35
2022-10-03T04:49:42.607Z,8.00
2022-10-03T04:55:27.756Z,9.73
2022-10-03T05:01:17.650Z,8.63
2022-10-03T05:06:52.310Z,9.32
2022-10-03T05:12:52.036Z,9.57
2022-10-03T05:18:15.600Z,9.10
2022-10-03T05:23:50.215Z,9.65
2022-10-03T05:29:18.249Z,9.65
2022-10-03T05:35:04.690Z,8.95
2022-10-03T05:40:30.077Z,9.73
2022-10-03T05:46:03.691Z,12.45
2022-10-03T05:51:56.372Z,14.35
2022-10-03T05:57:50.249Z,15.38
2022-10-03T06:03:59.347Z,16.88
2022-10-03T06:09:51.356Z,17.48
2022-10-03T06:15:19.287Z,17.80
2022-10-03T06:21:28.719Z,18.40
2022-10-03T06:27:11.489Z,15.55
2022-10-03T06:33:01.962Z,16.02
2022-10-03T06:39:01.022Z,16.65
2022-10-03T06:44:29.063Z,16.50
2022-10-03T06:49:57.342Z,15.30
2022-10-03T06:55:40.533Z,16.23
2022-10-03T07:01:11.269Z,15.20
2022-10-03T07:06:38.696Z,15.60
2022-10-03T07:12:21.865Z,17.13
2022-10-03T07:18:21.049Z,14.93
2022-10-03T07:24:03.080Z,15.95
2022-10-03T07:29:52.453Z,16.52
2022-10-03T07:36:09.816Z,16.92
2022-10-03T07:42:00.716Z,14.75
2022-10-03T07:47:49.989Z,16.60
2022-10-03T07:53:26.627Z,17.02
2022-10-03T07:58:56.002Z,16.65
2022-10-03T08:04:51.139Z,17.13
2022-10-03T08:10:47.439Z,17.58
2022-10-03T08:16:27.410Z,15.93
2022-10-03T08:22:06.108Z,15.57
2022-10-03T08:27:58.750Z,13.68
2022-10-03T08:33:39.239Z,11.20
2022-10-03T08:39:18.329Z,9.30
2022-10-03T08:45:02.916Z,9.27
2022-10-03T08:50:32.221Z,9.82
2022-10-03T08:56:07.744Z,9.60
2022-10-03T09:01:32.563Z,10.10
2022-10-03T09:07:26.684Z,10.18
2022-10-03T09:13:26.055Z,8.70
2022-10-03T09:19:29.364Z,8.80
2022-10-03T09:25:03.853Z,8.32
2022-10-03T09:30:42.340Z,8.07
2022-10-03T09:36:14.522Z,8.00
2022-10-03T09:41:59.079Z,8.48
2022-10-03T09:47:43.490Z,8.45
2022-10-03T09:53:27.906Z,6.75
2022-10-03T09:58:58.564Z,5.50
2022-10-03T10:04:43.380Z,5.65
2022-10-03T10:10:40.315Z,5.50
2022-10-03T10:16:36.268Z,5.32
2022-10-03T10:22:16.842Z,5.88
2022-10-03T10:28:21.210Z,5.57
2022-10-03T10:34:24.754Z,5.50
2022-10-03T10:40:24.811Z,5.90
2022-10-03T10:46:16.109Z,4.80
2022-10-03T10:51:46.709Z,4.85
2022-10-03T10:57:59.648Z,8.07
2022-10-03T11:03:59.701Z,6.05
2022-10-03T11:09:46.447Z,5.75
2022-10-03T11:15:37.983Z,5.35
2022-10-03T11:21:21.070Z,5.20
2022-10-03T11:27:20.193Z,5.43
2022-10-03T11:33:01.743Z,5.00
2022-10-03T11:38:30.006Z,5.22
2022-10-03T11:44:04.408Z,5.38
2022-10-03T11:49:47.813Z,4.15
2022-10-03T11:55:34.073Z,4.53
2022-10-03T12:01:24.072Z,4.30
2022-10-03T12:07:28.594Z,4.43
2022-10-03T12:12:54.931Z,4.88
2022-10-03T12:18:20.194Z,3.65
2022-10-03T12:23:54.738Z,3.42
2022-10-03T12:29:21.034Z,3.15
2022-10-03T12:34:46.649Z,3.53
2022-10-03T12:40:24.897Z,3.08
2022-10-03T12:45:58.956Z,2.88
2022-10-03T12:51:39.286Z,3.00
2022-10-03T12:57:27.974Z,3.55
2022-10-03T13:03:19.926Z,3.47
2022-10-03T13:09:19.393Z,3.17
2022-10-03T13:15:19.236Z,3.00
2022-10-03T13:20:45.533Z,5.30
2022-10-03T13:26:18.294Z,3.60
2022-10-03T13:31:55.123Z,3.33
2022-10-03T13:37:35.681Z,3.20
2022-10-03T13:43:01.835Z,3.00
2022-10-03T13:48:29.775Z,3.38
2022-10-03T13:54:06.831Z,3.40
2022-10-03T13:59:47.268Z,3.30
2022-10-03T14:05:26.024Z,2.60
2022-10-03T14:11:22.805Z,2.30
2022-10-03T14:16:57.362Z,2.97
2022-10-03T14:22:27.968Z,2.40
2022-10-03T14:28:19.304Z,3.05
2022-10-03T14:33:51.701Z,2.47
2022-10-03T14:39:36.745Z,2.85
2022-10-03T14:45:03.638Z,2.60
2022-10-03T14:50:29.099Z,2.90
2022-10-03T14:56:02.839Z,3.15
2022-10-03T15:01:28.381Z,2.88
2022-10-03T15:06:56.938Z,2.88
2022-10-03T15:12:24.557Z,2.30
2022-10-03T15:17:50.091Z,2.42
2022-10-03T15:23:33.215Z,2.90
2022-10-03T15:29:02.577Z,2.45
2022-10-03T15:34:31.767Z,2.50
2022-10-03T15:39:58.624Z,2.83
2022-10-03T15:45:32.457Z,2.80
2022-10-03T15:50:57.020Z,2.30
2022-10-03T15:56:28.032Z,2.85
2022-10-03T16:01:53.769Z,2.78
2022-10-03T16:07:29.838Z,2.45
2022-10-03T16:12:58.438Z,2.80
2022-10-03T16:18:44.565Z,2.80
2022-10-03T16:24:16.102Z,2.28
2022-10-03T16:29:41.572Z,2.55
2022-10-03T16:35:20.945Z,3.10
2022-10-03T16:40:50.253Z,3.22
2022-10-03T16:46:19.011Z,3.10
2022-10-03T16:52:03.290Z,3.83
2022-10-03T16:57:33.649Z,3.00
2022-10-03T17:02:56.942Z,4.63
2022-10-03T17:08:41.233Z,3.88
2022-10-03T17:14:07.108Z,3.15
2022-10-03T17:19:42.998Z,4.20
2022-10-03T17:25:26.076Z,5.05
2022-10-03T17:30:54.396Z,4.80
2022-10-03T17:37:13.424Z,3.97
2022-10-03T17:42:46.154Z,4.47
2022-10-03T17:48:31.021Z,4.28
2022-10-03T17:53:57.694Z,5.78
2022-10-03T17:59:26.147Z,5.30
2022-10-03T18:05:00.020Z,5.82
2022-10-03T18:10:26.520Z,6.72
2022-10-03T18:16:14.749Z,6.63
2022-10-03T18:22:02.116Z,7.10
2022-10-03T18:27:52.087Z,7.32
2022-10-03T18:33:20.154Z,5.95
2022-10-03T18:38:45.112Z,6.35
2022-10-03T18:44:14.115Z,5.75
2022-10-03T18:49:39.955Z,5.72
2022-10-03T18:55:16.221Z,6.70
2022-10-03T19:00:50.753Z,5.82
2022-10-03T19:06:22.229Z,6.30
2022-10-03T19:11:56.690Z,6.15
2022-10-03T19:17:33.457Z,6.85
2022-10-03T19:23:09.438Z,6.30
2022-10-03T19:28:46.737Z,6.90
2022-10-03T19:34:37.153Z,6.47
2022-10-03T19:39:59.159Z,7.03
2022-10-03T19:45:21.020Z,7.15
2022-10-03T19:50:42.772Z,6.57
2022-10-03T19:56:04.736Z,5.30
2022-10-03T20:01:26.929Z,5.68
2022-10-03T20:06:50.033Z,5.45
2022-10-03T20:12:14.094Z,6.63
2022-10-03T20:17:38.570Z,6.85
2022-10-03T20:23:06.783Z,6.83
2022-10-03T20:28:55.807Z,6.18
2022-10-03T20:34:23.933Z,6.78
2022-10-03T20:39:47.071Z,6.47
2022-10-03T20:45:22.257Z,7.05
2022-10-03T20:50:46.892Z,7.32
2022-10-03T20:56:12.721Z,7.78
2022-10-03T21:01:36.625Z,6.45
2022-10-03T21:07:12.627Z,7.03
2022-10-03T21:12:45.387Z,7.72
2022-10-03T21:18:16.818Z,6.90
2022-10-03T21:23:47.593Z,6.45
2022-10-03T21:29:31.000Z,6.88
2022-10-03T21:35:11.300Z,7.45
2022-10-03T21:40:33.015Z,7.20
2022-10-03T21:46:07.478Z,8.45
2022-10-03T21:51:44.403Z,7.90
2022-10-03T21:57:13.963Z,7.65
2022-10-03T22:02:56.566Z,7.95
2022-10-03T22:08:28.755Z,7.53
2022-10-03T22:14:05.442Z,8.25
2022-10-03T22:19:37.183Z,7.78
2022-10-03T22:25:20.720Z,7.38
2022-10-03T22:30:51.713Z,7.50
2022-10-03T22:36:13.548Z,7.70
2022-10-03T22:41:36.780Z,7.70
2022-10-03T22:47:04.033Z,7.38
2022-10-03T22:52:29.595Z,8.05
2022-10-03T22:57:52.755Z,8.02
2022-10-03T23:03:24.900Z,7.40
2022-10-03T23:09:10.942Z,7.93
2022-10-03T23:14:37.523Z,7.90
2022-10-03T23:20:18.873Z,7.45
2022-10-03T23:25:58.133Z,8.27
2022-10-03T23:31:55.549Z,8.33
2022-10-03T23:37:17.166Z,8.05
2022-10-03T23:42:45.995Z,8.52
2022-10-03T23:48:14.074Z,8.75
2022-10-03T23:53:39.347Z,8.40
2022-10-03T23:59:03.989Z,8.23
